Time;durP1;ratioP1;P1;durP2;ratioP2;P2;SDS_P1;SDS_P2;PMS_P1;PMS_P2;Temp;Humidity;BMP_temperature;BMP_pressure;BME280_temperature;BME280_humidity;BME280_pressure;Samples;Min_cycle;Max_cycle;Signal;HPM_P1;HPM_P2
2023/10/03 00:00:28;;;;;;;16.75;6.22;;;;;;;16.26;50.83;93340.81;2025300;70;20145;-73
2023/10/03 00:02:55;;;;;;;16.67;5.65;;;;;;;16.29;51.73;93340.91;2025775;71;20614;-73
2023/10/03 00:05:22;;;;;;;17.95;6.32;;;;;;;15.93;53.48;93349.03;2025750;70;20597;-74
2023/10/03 00:07:58;;;;;;;16.65;6.53;;;;;;;15.85;54.06;93345.78;2025991;70;20176;-74
2023/10/03 00:10:24;;;;;;;16.60;5.95;;;;;;;16.00;53.56;93345.88;2025702;71;20596;-75
2023/10/03 00:12:51;;;;;;;15.32;6.30;;;;;;;15.85;55.16;93343.69;2026232;70;20141;-74
2023/10/03 00:15:24;;;;;;;17.05;6.05;;;;;;;15.94;55.29;93333.47;2025517;71;20275;-75
2023/10/03 00:17:51;;;;;;;17.45;6.47;;;;;;;15.79;55.39;93337.69;2025591;70;20205;-74
2023/10/03 00:20:22;;;;;;;15.32;6.10;;;;;;;15.55;55.63;93322.94;2025930;70;20157;-74
2023/10/03 00:22:51;;;;;;;16.27;6.32;;;;;;;15.68;55.61;93330.03;2026547;70;20196;-73
2023/10/03 00:25:26;;;;;;;17.35;5.78;;;;;;;15.52;56.83;93321.34;2029512;70;20161;-74
2023/10/03 00:27:55;;;;;;;20.00;6.68;;;;;;;15.62;55.58;93329.66;2029663;70;20557;-74
2023/10/03 00:30:24;;;;;;;17.33;6.53;;;;;;;15.48;55.94;93332.50;2029716;70;20531;-74
2023/10/03 00:32:51;;;;;;;16.15;6.57;;;;;;;15.44;55.67;93318.09;2029302;70;20137;-74
2023/10/03 00:35:20;;;;;;;17.90;6.35;;;;;;;15.39;55.81;93316.41;2026249;70;20265;-73
2023/10/03 00:37:48;;;;;;;17.33;6.50;;;;;;;15.41;55.98;93325.03;2025885;70;20578;-73
2023/10/03 00:40:31;;;;;;;18.00;6.43;;;;;;;15.44;56.10;93326.59;2025573;70;20523;-73
2023/10/03 00:42:59;;;;;;;19.13;6.50;;;;;;;15.38;55.26;93317.78;2028638;70;20176;-72
2023/10/03 00:45:26;;;;;;;16.55;6.10;;;;;;;15.37;56.06;93310.63;2026297;70;20232;-73
2023/10/03 00:47:53;;;;;;;18.40;6.85;;;;;;;15.24;56.32;93309.25;2029267;70;20592;-73
2023/10/03 00:50:20;;;;;;;18.90;6.50;;;;;;;15.30;56.01;93311.66;2029148;70;20671;-73
2023/10/03 00:52:55;;;;;;;16.73;6.50;;;;;;;15.29;55.72;93308.09;2028818;70;20179;-73
2023/10/03 00:55:26;;;;;;;16.92;6.57;;;;;;;15.08;56.42;93314.06;2028990;70;20962;-73
2023/10/03 01:00:41;;;;;;;16.73;6.20;;;;;;;15.29;55.23;93293.19;2029751;70;20140;-74
2023/10/03 01:03:27;;;;;;;16.98;6.55;;;;;;;15.30;54.15;93300.31;2029204;70;20201;-75
2023/10/03 01:05:54;;;;;;;17.02;6.30;;;;;;;15.10;55.50;93297.88;2029194;70;20164;-76
2023/10/03 01:08:23;;;;;;;17.38;6.38;;;;;;;15.14;54.59;93297.38;2029059;70;20148;-75
2023/10/03 01:10:51;;;;;;;17.10;6.22;;;;;;;15.12;55.89;93315.03;2028955;70;20160;-75
2023/10/03 01:13:19;;;;;;;17.45;6.38;;;;;;;15.10;56.07;93311.34;2028782;70;20175;-75
2023/10/03 01:15:50;;;;;;;17.52;6.57;;;;;;;14.97;57.26;93319.19;2029501;70;20225;-76
2023/10/03 01:18:21;;;;;;;18.77;6.75;;;;;;;15.01;56.76;93313.00;2028811;70;20191;-75
2023/10/03 01:20:50;;;;;;;16.17;6.97;;;;;;;15.06;56.49;93311.13;2029111;70;20137;-76
2023/10/03 01:23:19;;;;;;;15.27;6.47;;;;;;;15.01;56.61;93307.31;2029150;70;20283;-75
2023/10/03 01:25:44;;;;;;;19.77;6.25;;;;;;;15.03;56.01;93307.44;2029084;70;20190;-75
2023/10/03 01:28:13;;;;;;;16.38;6.38;;;;;;;14.92;56.50;93305.41;2026297;70;20602;-75
2023/10/03 01:30:43;;;;;;;18.83;6.25;;;;;;;14.90;56.63;93305.31;2029930;70;20617;-75
2023/10/03 01:33:11;;;;;;;17.52;6.30;;;;;;;15.01;55.45;93304.50;2029862;70;20145;-74
2023/10/03 01:35:37;;;;;;;16.10;5.70;;;;;;;15.03;55.71;93301.00;2028741;70;20293;-75
2023/10/03 01:38:05;;;;;;;19.02;5.72;;;;;;;14.96;56.64;93305.63;2026395;70;20141;-76
2023/10/03 01:40:31;;;;;;;16.23;6.03;;;;;;;14.64;57.08;93308.16;2026100;71;20507;-75
2023/10/03 01:42:57;;;;;;;17.88;6.45;;;;;;;14.74;56.64;93296.66;2026227;70;20184;-76
2023/10/03 01:45:26;;;;;;;21.25;6.68;;;;;;;14.65;58.01;93311.72;2026476;71;20151;-75
2023/10/03 01:47:53;;;;;;;17.30;6.53;;;;;;;14.65;57.81;93300.38;2028754;70;20619;-75
2023/10/03 01:50:20;;;;;;;18.27;6.10;;;;;;;14.74;57.47;93303.03;2028949;70;20152;-75
2023/10/03 01:52:47;;;;;;;19.88;6.90;;;;;;;14.47;58.89;93297.25;2029016;70;20601;-74
2023/10/03 01:55:16;;;;;;;17.58;6.13;;;;;;;14.61;55.94;93291.66;2029773;70;20161;-74
2023/10/03 01:57:46;;;;;;;19.17;6.37;;;;;;;14.82;55.62;93302.03;2028846;70;20216;-75
2023/10/03 02:00:24;;;;;;;19.00;6.22;;;;;;;14.78;55.88;93294.03;2029013;70;20365;-74
2023/10/03 02:03:00;;;;;;;18.10;6.53;;;;;;;14.71;56.88;93307.16;2029082;70;20141;-75
2023/10/03 02:05:27;;;;;;;18.85;6.25;;;;;;;14.81;56.61;93304.13;2029111;70;20629;-75
2023/10/03 02:07:55;;;;;;;17.92;6.50;;;;;;;14.70;56.56;93299.97;2029211;70;20235;-76
2023/10/03 02:10:22;;;;;;;17.13;6.07;;;;;;;14.76;55.99;93302.44;2029158;70;20159;-75
2023/10/03 02:12:48;;;;;;;18.95;6.70;;;;;;;14.74;55.98;93303.03;2029131;70;20202;-75
2023/10/03 02:15:25;;;;;;;16.45;6.35;;;;;;;14.68;57.18;93299.16;2029334;70;20160;-74
2023/10/03 02:17:54;;;;;;;17.25;6.30;;;;;;;14.58;56.58;93298.59;2028606;70;20153;-74
2023/10/03 02:20:25;;;;;;;18.23;6.30;;;;;;;14.65;55.78;93291.91;2029604;70;20144;-74
2023/10/03 02:22:54;;;;;;;18.85;6.85;;;;;;;14.82;54.88;93294.25;2029092;70;20229;-74
2023/10/03 02:25:30;;;;;;;18.10;6.78;;;;;;;14.82;54.69;93294.25;2029179;70;20713;-76
2023/10/03 02:27:57;;;;;;;16.65;6.18;;;;;;;14.89;54.44;93290.41;2029113;70;20616;-75
2023/10/03 02:30:26;;;;;;;17.08;6.25;;;;;;;14.91;54.69;93298.28;2029109;70;20748;-74
2023/10/03 02:32:54;;;;;;;16.67;6.50;;;;;;;14.89;54.71;93289.66;2029726;70;20205;-74
2023/10/03 02:35:28;;;;;;;18.67;6.45;;;;;;;14.58;55.55;93256.09;2029763;70;20139;-75
2023/10/03 02:37:56;;;;;;;20.95;6.45;;;;;;;14.89;55.25;93286.81;2022742;71;20146;-75
2023/10/03 02:40:27;;;;;;;17.58;6.68;;;;;;;14.74;56.24;93283.22;2024687;71;20151;-74
2023/10/03 02:42:54;;;;;;;17.70;6.60;;;;;;;14.76;54.56;93279.03;2022001;71;20146;-74
2023/10/03 02:45:23;;;;;;;15.80;6.05;;;;;;;14.84;54.94;93285.84;2022731;71;20153;-76
2023/10/03 02:48:03;;;;;;;16.75;6.00;;;;;;;14.83;53.60;93278.00;2022678;71;20149;-76
2023/10/03 02:50:34;;;;;;;17.35;6.50;;;;;;;14.92;55.22;93283.47;2022820;71;20150;-75
2023/10/03 02:53:04;;;;;;;18.85;6.35;;;;;;;14.75;54.73;93286.78;2022784;71;20538;-73
2023/10/03 02:55:30;;;;;;;17.15;6.38;;;;;;;14.85;54.10;93295.84;2023308;71;20142;-75
2023/10/03 02:57:56;;;;;;;17.38;6.00;;;;;;;14.53;55.68;93277.06;2019804;71;20153;-73
2023/10/03 03:00:22;;;;;;;16.23;6.30;;;;;;;14.74;55.41;93279.63;2022374;71;20153;-75
2023/10/03 03:02:48;;;;;;;19.15;6.05;;;;;;;14.78;55.43;93270.63;2023094;71;20161;-73
2023/10/03 03:05:22;;;;;;;17.13;6.20;;;;;;;14.67;56.06;93272.19;2024766;71;20157;-74
2023/10/03 03:07:49;;;;;;;17.52;6.22;;;;;;;14.59;56.77;93268.91;2022605;71;20511;-73
2023/10/03 03:10:21;;;;;;;16.65;6.35;;;;;;;14.47;56.89;93266.09;2022773;71;20141;-73
2023/10/03 03:12:47;;;;;;;15.25;5.82;;;;;;;14.50;56.41;93270.53;2022309;71;20145;-74
2023/10/03 03:15:22;;;;;;;17.05;6.32;;;;;;;14.67;55.67;93269.34;2022348;71;20530;-74
2023/10/03 03:17:51;;;;;;;16.52;6.78;;;;;;;14.73;54.96;93278.16;2024894;71;20230;-73
2023/10/03 03:20:25;;;;;;;18.33;6.07;;;;;;;14.74;56.01;93268.31;2023023;71;20149;-74
2023/10/03 03:22:52;;;;;;;17.80;7.35;;;;;;;14.75;55.47;93269.78;2022268;71;20157;-74
2023/10/03 03:25:35;;;;;;;19.27;6.13;;;;;;;14.60;56.68;93265.44;2022898;71;20678;-75
2023/10/03 03:28:01;;;;;;;18.00;6.03;;;;;;;14.36;57.29;93261.22;2022921;71;20148;-75
2023/10/03 03:32:54;;;;;;;20.33;7.30;;;;;;;14.23;56.30;93260.53;2022436;71;20142;-73
2023/10/03 03:35:24;;;;;;;19.88;7.35;;;;;;;14.45;55.28;93268.81;2023081;71;20147;-74
2023/10/03 03:37:55;;;;;;;19.98;7.00;;;;;;;14.36;55.28;93264.81;2022591;71;20149;-74
2023/10/03 03:40:33;;;;;;;19.80;6.72;;;;;;;14.52;54.63;93272.75;2023045;71;20149;-75
2023/10/03 03:43:02;;;;;;;18.38;6.50;;;;;;;14.58;54.99;93268.16;2022997;71;20249;-73
2023/10/03 03:45:27;;;;;;;17.20;6.40;;;;;;;14.53;55.49;93262.91;2023330;71;20289;-75
2023/10/03 03:47:54;;;;;;;17.55;6.50;;;;;;;14.53;55.30;93263.63;2023012;71;20648;-76
2023/10/03 03:50:21;;;;;;;18.02;6.40;;;;;;;14.63;55.26;93263.47;2024875;71;20161;-76
2023/10/03 03:52:49;;;;;;;16.98;6.75;;;;;;;14.65;55.33;93264.28;2023152;71;20598;-75
2023/10/03 03:55:17;;;;;;;21.20;7.32;;;;;;;14.31;56.71;93268.03;2023584;71;20145;-78
2023/10/03 03:57:42;;;;;;;18.83;7.38;;;;;;;14.32;56.84;93256.06;2023449;71;20150;-76
2023/10/03 04:00:22;;;;;;;17.85;6.22;;;;;;;14.27;56.99;93274.19;2023683;71;20172;-74
2023/10/03 04:02:48;;;;;;;18.52;7.35;;;;;;;14.27;57.24;93259.31;2023620;70;20177;-75
2023/10/03 04:05:20;;;;;;;18.13;7.07;;;;;;;14.13;57.38;93259.97;2023451;70;20184;-75
2023/10/03 04:07:47;;;;;;;17.52;6.20;;;;;;;14.17;56.43;93257.38;2023602;70;20157;-76
2023/10/03 04:10:13;;;;;;;18.08;6.70;;;;;;;14.32;56.13;93261.75;2023516;70;20153;-74
2023/10/03 04:12:42;;;;;;;16.63;6.57;;;;;;;14.26;56.12;93255.75;2023337;71;20530;-75
2023/10/03 04:15:15;;;;;;;21.00;6.75;;;;;;;14.18;57.76;93255.28;2023147;71;20184;-76
2023/10/03 04:17:42;;;;;;;19.17;7.07;;;;;;;13.87;58.54;93264.88;2023268;70;20511;-75
2023/10/03 04:22:53;;;;;;;18.50;6.55;;;;;;;14.04;58.32;93251.66;2023493;71;20153;-76
2023/10/03 04:25:21;;;;;;;17.58;6.20;;;;;;;13.90;58.57;93255.16;2023475;71;20144;-74
2023/10/03 04:27:47;;;;;;;20.23;7.07;;;;;;;14.01;57.74;93236.63;2023371;70;20153;-75
2023/10/03 04:30:14;;;;;;;18.70;6.45;;;;;;;13.79;58.25;93235.34;2023420;70;20145;-76
2023/10/03 04:32:41;;;;;;;21.15;6.70;;;;;;;13.87;58.58;93250.72;2023437;71;20599;-75
2023/10/03 04:35:13;;;;;;;19.65;6.65;;;;;;;13.86;58.97;93254.19;2023492;70;20248;-76
2023/10/03 04:37:42;;;;;;;20.10;6.97;;;;;;;13.84;59.01;93248.41;2026324;71;20213;-75
2023/10/03 04:40:15;;;;;;;17.30;6.57;;;;;;;13.86;59.27;93242.84;2025853;70;20196;-75
2023/10/03 04:42:44;;;;;;;19.52;6.93;;;;;;;13.70;59.94;93245.50;2025812;71;20270;-75
2023/10/03 04:45:11;;;;;;;23.50;7.72;;;;;;;13.25;60.04;93223.09;2026167;70;20521;-77
2023/10/03 04:47:43;;;;;;;54.97;31.08;;;;;;;13.53;60.35;93257.94;2026824;70;20273;-74
2023/10/03 04:50:10;;;;;;;30.53;15.33;;;;;;;13.55;60.41;93258.06;2026830;71;20144;-74
2023/10/03 04:52:37;;;;;;;28.73;13.30;;;;;;;13.67;59.29;93260.88;2026771;70;20278;-73
2023/10/03 04:55:02;;;;;;;29.25;12.30;;;;;;;13.67;59.61;93258.78;2026207;70;20161;-74
2023/10/03 04:57:28;;;;;;;24.15;10.98;;;;;;;13.57;60.20;93257.47;2026397;70;20621;-73
2023/10/03 04:59:56;;;;;;;24.80;9.48;;;;;;;13.31;60.91;93259.47;2026220;71;20145;-73
2023/10/03 05:02:25;;;;;;;24.00;10.65;;;;;;;13.44;60.49;93256.00;2026470;70;20157;-75
2023/10/03 05:04:51;;;;;;;21.00;8.95;;;;;;;13.47;60.30;93252.69;2026642;71;20156;-73
2023/10/03 05:07:17;;;;;;;22.63;8.90;;;;;;;13.55;59.76;93257.31;2026647;70;20153;-74
2023/10/03 05:09:43;;;;;;;19.30;7.72;;;;;;;13.48;60.11;93262.63;2026550;70;20159;-74
2023/10/03 05:12:09;;;;;;;25.83;8.40;;;;;;;13.45;60.72;93265.94;2026617;71;20144;-74
2023/10/03 05:14:40;;;;;;;23.63;7.47;;;;;;;13.48;60.84;93262.63;2026458;70;20159;-73
2023/10/03 05:17:06;;;;;;;25.45;8.35;;;;;;;13.31;61.43;93268.69;2026307;70;20245;-73
2023/10/03 05:19:32;;;;;;;20.15;8.30;;;;;;;13.16;62.32;93269.88;2025951;70;20159;-74
2023/10/03 05:21:58;;;;;;;22.75;8.73;;;;;;;13.35;61.07;93271.00;2026387;70;20180;-75
2023/10/03 05:24:24;;;;;;;21.70;7.90;;;;;;;13.35;60.38;93271.75;2026551;70;20576;-73
2023/10/03 05:26:51;;;;;;;22.05;8.77;;;;;;;13.26;61.90;93266.22;2026413;70;20151;-73
2023/10/03 05:29:18;;;;;;;20.77;8.40;;;;;;;13.22;62.58;93267.44;2026503;70;20152;-77
2023/10/03 05:31:44;;;;;;;28.00;7.97;;;;;;;13.22;62.15;93270.28;2026369;70;20156;-74
2023/10/03 05:34:12;;;;;;;23.48;7.72;;;;;;;13.29;61.01;93265.00;2025648;71;20145;-76
2023/10/03 05:36:38;;;;;;;21.13;7.47;;;;;;;13.35;61.32;93268.19;2026474;70;20205;-76
2023/10/03 05:39:06;;;;;;;18.08;7.88;;;;;;;13.34;61.54;93267.44;2026425;70;20664;-74
2023/10/03 05:41:32;;;;;;;22.35;8.25;;;;;;;13.18;62.62;93267.19;2026575;70;20240;-75
2023/10/03 05:43:57;;;;;;;22.98;8.55;;;;;;;13.29;61.57;93265.00;2026318;70;20248;-75
2023/10/03 05:46:24;;;;;;;29.27;9.32;;;;;;;13.30;61.46;93266.47;2026481;70;20160;-75
2023/10/03 05:48:51;;;;;;;25.13;8.23;;;;;;;13.30;61.78;93272.88;2025692;71;20150;-74
2023/10/03 05:51:17;;;;;;;19.08;7.72;;;;;;;13.35;60.72;93262.53;2026221;70;20614;-75
2023/10/03 05:53:42;;;;;;;25.75;9.98;;;;;;;13.29;60.92;93265.00;2026465;70;20148;-75
2023/10/03 05:56:10;;;;;;;28.50;10.57;;;;;;;13.23;61.34;93266.09;2026409;70;20164;-75
2023/10/03 05:58:37;;;;;;;22.92;9.95;;;;;;;13.32;61.32;93263.75;2026218;70;20157;-73
2023/10/03 06:01:04;;;;;;;24.55;9.98;;;;;;;13.37;61.56;93265.47;2026368;70;20156;-72
2023/10/03 06:03:29;;;;;;;29.95;9.75;;;;;;;13.42;61.28;93264.34;2026559;70;20184;-74
2023/10/03 06:05:55;;;;;;;24.17;9.50;;;;;;;13.32;61.64;93269.41;2026357;70;20221;-74
2023/10/03 06:08:21;;;;;;;24.15;9.32;;;;;;;13.34;61.68;93275.19;2026551;70;20221;-75
2023/10/03 06:10:49;;;;;;;26.98;9.60;;;;;;;13.43;61.89;93277.16;2026489;70;20699;-75
2023/10/03 06:13:15;;;;;;;25.92;9.07;;;;;;;13.50;61.63;93283.91;2026214;70;20255;-75
2023/10/03 06:15:42;;;;;;;25.40;9.40;;;;;;;13.47;62.15;93286.63;2026291;70;20269;-75
2023/10/03 06:18:08;;;;;;;25.13;9.68;;;;;;;13.50;61.65;93283.91;2026209;70;20173;-76
2023/10/03 06:20:34;;;;;;;22.80;8.60;;;;;;;13.58;59.88;93281.56;2026233;70;20245;-75
2023/10/03 06:23:01;;;;;;;21.65;8.30;;;;;;;13.32;62.00;93286.38;2025917;70;20141;-76
2023/10/03 06:25:26;;;;;;;22.92;8.65;;;;;;;13.47;62.76;93280.97;2026439;70;20157;-75
2023/10/03 06:27:52;;;;;;;23.98;8.15;;;;;;;13.44;62.54;93287.84;2026501;70;20159;-75
2023/10/03 06:30:18;;;;;;;29.60;8.30;;;;;;;13.57;61.68;93292.13;2026329;70;20180;-75
2023/10/03 06:32:45;;;;;;;22.30;8.35;;;;;;;13.65;59.92;93295.44;2026406;70;20148;-74
2023/10/03 06:35:11;;;;;;;28.70;8.63;;;;;;;13.72;61.60;93288.78;2026546;70;20136;-74
2023/10/03 06:37:40;;;;;;;24.65;8.30;;;;;;;13.62;62.50;93288.19;2025925;71;20144;-72
2023/10/03 06:40:09;;;;;;;23.92;7.90;;;;;;;13.68;63.18;93287.81;2023084;71;20149;-75
2023/10/03 06:42:35;;;;;;;22.10;7.47;;;;;;;13.72;62.13;93282.38;2025913;70;20145;-74
2023/10/03 06:45:05;;;;;;;22.48;7.85;;;;;;;13.71;62.17;93280.91;2026715;70;20161;-75
2023/10/03 06:47:33;;;;;;;21.25;7.75;;;;;;;13.59;62.45;93280.94;2026558;71;20164;-74
2023/10/03 06:49:59;;;;;;;19.25;7.50;;;;;;;13.58;62.77;93278.72;2026467;70;20610;-74
2023/10/03 06:52:26;;;;;;;20.25;7.50;;;;;;;13.53;61.42;93280.59;2026515;70;20141;-75
2023/10/03 06:54:51;;;;;;;21.77;8.40;;;;;;;13.80;59.90;93284.97;2026317;70;20598;-76
2023/10/03 06:57:17;;;;;;;18.80;7.93;;;;;;;13.88;59.95;93283.34;2025869;70;20171;-75
2023/10/03 06:59:42;;;;;;;19.02;7.50;;;;;;;13.80;61.44;93271.53;2026334;70;20149;-75
2023/10/03 07:02:08;;;;;;;24.33;9.50;;;;;;;13.80;61.01;93282.88;2026312;70;20176;-78
2023/10/03 07:04:34;;;;;;;22.52;8.45;;;;;;;13.69;62.55;93281.53;2026240;70;20153;-78
2023/10/03 07:06:59;;;;;;;22.38;8.38;;;;;;;13.74;61.71;93282.50;2026555;70;20157;-75
2023/10/03 07:09:25;;;;;;;27.17;9.02;;;;;;;13.81;61.38;93284.34;2026397;70;20188;-76
2023/10/03 07:11:52;;;;;;;19.55;6.82;;;;;;;13.79;60.23;93278.56;2026178;70;20506;-75
2023/10/03 07:14:18;;;;;;;28.95;9.73;;;;;;;13.80;60.93;93282.13;2025864;70;20180;-76
2023/10/03 07:16:46;;;;;;;24.75;8.85;;;;;;;13.89;60.06;93272.75;2026002;70;20129;-77
2023/10/03 07:19:14;;;;;;;27.77;11.02;;;;;;;13.93;60.53;93275.81;2026212;70;20160;-75
2023/10/03 07:21:41;;;;;;;28.02;11.15;;;;;;;14.01;61.04;93272.69;2026267;70;20244;-76
2023/10/03 07:24:07;;;;;;;26.30;9.23;;;;;;;13.96;61.28;93285.88;2028212;70;20621;-78
2023/10/03 07:26:32;;;;;;;24.52;9.13;;;;;;;13.98;61.62;93272.59;2026464;71;20232;-78
2023/10/03 07:29:00;;;;;;;22.30;7.90;;;;;;;14.14;61.30;93281.25;2025843;70;20561;-74
2023/10/03 07:31:27;;;;;;;22.63;8.13;;;;;;;13.91;61.49;93275.69;2026284;71;20152;-76
2023/10/03 07:33:52;;;;;;;19.85;7.90;;;;;;;13.83;61.05;93266.72;2026664;70;20161;-76
2023/10/03 07:36:18;;;;;;;23.63;8.20;;;;;;;14.06;60.90;93265.91;2026849;70;20184;-76
2023/10/03 07:38:47;;;;;;;22.77;8.50;;;;;;;14.10;60.26;93255.56;2026698;70;20137;-76
2023/10/03 07:41:15;;;;;;;26.50;8.18;;;;;;;14.17;61.07;93267.97;2026239;70;20156;-75
2023/10/03 07:43:41;;;;;;;19.63;7.82;;;;;;;14.36;59.68;93270.47;2026345;70;20137;-76
2023/10/03 07:46:07;;;;;;;19.83;7.13;;;;;;;14.55;60.04;93269.41;2025896;70;20145;-75
2023/10/03 07:48:33;;;;;;;22.38;8.05;;;;;;;14.83;60.43;93255.31;2026589;70;20148;-74
2023/10/03 07:50:58;;;;;;;19.73;8.02;;;;;;;15.13;59.43;93265.44;2026482;70;20548;-78
2023/10/03 07:53:29;;;;;;;22.10;7.68;;;;;;;15.52;60.20;93256.81;2026631;70;20147;-76
2023/10/03 07:55:56;;;;;;;27.05;7.65;;;;;;;15.84;59.30;93271.22;2026550;70;20149;-76
2023/10/03 07:58:22;;;;;;;19.05;8.13;;;;;;;16.51;59.17;93256.75;2025862;70;20163;-77
2023/10/03 08:00:49;;;;;;;19.08;7.65;;;;;;;17.04;57.60;93259.22;2026596;70;20172;-78
2023/10/03 08:03:15;;;;;;;20.08;7.63;;;;;;;17.27;55.96;93261.72;2026422;70;20605;-77
2023/10/03 08:05:41;;;;;;;19.42;8.00;;;;;;;17.35;55.25;93264.19;2026354;70;20193;-76
2023/10/03 08:08:07;;;;;;;20.95;8.52;;;;;;;17.44;54.62;93248.94;2026578;70;20157;-78
2023/10/03 08:10:34;;;;;;;21.45;7.88;;;;;;;17.77;54.85;93261.75;2026654;70;20195;-76
2023/10/03 08:13:00;;;;;;;23.20;7.75;;;;;;;18.36;53.91;93269.94;2026439;70;20167;-77
2023/10/03 08:15:31;;;;;;;21.00;8.10;;;;;;;18.71;52.95;93268.50;2026164;71;20163;-77
2023/10/03 08:17:58;;;;;;;20.67;7.78;;;;;;;18.86;53.22;93259.09;2026805;70;20153;-76
2023/10/03 08:20:26;;;;;;;21.65;8.20;;;;;;;19.30;52.42;93259.34;2026864;70;20614;-76
2023/10/03 08:22:52;;;;;;;19.80;8.30;;;;;;;19.60;50.51;93256.91;2026364;70;20153;-78
2023/10/03 08:25:24;;;;;;;18.00;8.00;;;;;;;19.93;49.24;93252.34;2027091;70;20164;-74
2023/10/03 08:27:51;;;;;;;;;;;;;;;20.21;48.53;93246.88;2026894;70;20569;-74
2023/10/03 08:30:28;;;;;;;18.85;8.35;;;;;;;20.46;49.52;93251.28;2026718;71;20058;-75
2023/10/03 08:32:55;;;;;;;19.83;8.40;;;;;;;20.86;48.37;93254.00;2026707;70;20149;-76
2023/10/03 08:35:34;;;;;;;18.92;8.15;;;;;;;20.97;48.33;93247.91;2026665;70;20175;-74
2023/10/03 08:38:06;;;;;;;15.88;7.15;;;;;;;21.78;46.95;93263.94;2026367;70;20199;-75
2023/10/03 08:40:36;;;;;;;15.55;7.43;;;;;;;22.09;44.31;93253.31;2026603;70;20137;-74
2023/10/03 08:43:05;;;;;;;16.30;7.72;;;;;;;21.87;45.90;93241.97;2026536;70;20141;-77
2023/10/03 08:45:35;;;;;;;20.52;8.02;;;;;;;22.15;46.05;93244.88;2026642;70;20545;-78
2023/10/03 08:48:05;;;;;;;17.13;7.20;;;;;;;22.12;43.84;93229.03;2026275;70;20149;-74
2023/10/03 08:50:39;;;;;;;18.05;7.53;;;;;;;22.69;43.53;93233.34;2026172;70;20172;-78
2023/10/03 08:53:26;;;;;;;17.25;7.30;;;;;;;22.81;42.16;93236.47;2026731;70;20583;-78
2023/10/03 08:55:57;;;;;;;20.08;7.80;;;;;;;23.20;42.21;93234.53;2026278;70;20210;-78
2023/10/03 08:58:25;;;;;;;15.82;7.38;;;;;;;23.62;43.52;93227.50;2028216;70;20598;-78
2023/10/03 09:01:02;;;;;;;16.92;7.60;;;;;;;23.12;44.73;93231.47;2026082;71;20245;-76
2023/10/03 09:03:51;;;;;;;13.88;7.60;;;;;;;23.04;44.94;93234.88;2026603;70;20594;-78
2023/10/03 09:06:22;;;;;;;17.13;7.15;;;;;;;23.90;42.89;93241.75;2026287;71;20571;-78
2023/10/03 09:08:51;;;;;;;;;;;;;;;24.20;42.59;93236.59;2026561;71;20157;-78
2023/10/03 09:11:18;;;;;;;15.60;7.43;;;;;;;24.01;41.89;93229.03;2026297;70;20049;-76
2023/10/03 09:13:48;;;;;;;17.85;7.45;;;;;;;24.71;41.80;93231.00;2026329;70;20590;-79
2023/10/03 09:16:19;;;;;;;15.02;7.43;;;;;;;25.17;40.36;93218.78;2026536;70;20149;-77
2023/10/03 09:18:50;;;;;;;18.13;7.63;;;;;;;25.43;39.54;93227.03;2026562;70;20149;-78
2023/10/03 09:21:23;;;;;;;14.07;6.95;;;;;;;25.88;38.82;93227.66;2026504;70;20153;-78
2023/10/03 09:24:02;;;;;;;14.98;7.38;;;;;;;26.37;36.88;93214.47;2026703;70;20271;-77
2023/10/03 09:26:47;;;;;;;16.38;7.50;;;;;;;26.85;35.74;93214.22;2026756;70;20160;-79
2023/10/03 09:29:18;;;;;;;15.93;7.63;;;;;;;26.70;34.06;93214.81;2026675;70;20236;-78
2023/10/03 09:31:48;;;;;;;17.60;6.80;;;;;;;26.90;35.59;93209.22;2026672;70;20129;-79
2023/10/03 09:34:16;;;;;;;17.98;7.53;;;;;;;27.28;34.70;93202.28;2023170;71;20161;-75
2023/10/03 09:36:42;;;;;;;15.88;7.60;;;;;;;26.67;33.19;93204.69;2022793;71;20154;-75
2023/10/03 09:39:08;;;;;;;15.45;7.70;;;;;;;27.05;35.13;93204.97;2023068;71;20145;-76
2023/10/03 09:41:38;;;;;;;16.08;7.20;;;;;;;27.43;33.56;93189.34;2023138;71;20157;-75
2023/10/03 09:44:07;;;;;;;17.88;7.32;;;;;;;28.21;32.15;93181.69;2023066;71;20612;-77
2023/10/03 09:46:41;;;;;;;15.65;7.50;;;;;;;28.44;32.78;93179.59;2022652;71;20141;-78
2023/10/03 09:49:08;;;;;;;15.05;7.38;;;;;;;27.48;35.08;93170.56;2023254;71;20606;-81
2023/10/03 09:51:51;;;;;;;15.38;7.30;;;;;;;27.99;32.42;93170.06;2023047;71;20154;-79
2023/10/03 09:54:24;;;;;;;19.05;7.82;;;;;;;27.76;33.43;93172.88;2023225;71;20172;-79
2023/10/03 09:56:52;;;;;;;18.70;8.32;;;;;;;27.90;34.54;93174.38;2023114;71;20295;-78
2023/10/03 09:59:23;;;;;;;16.17;7.75;;;;;;;28.08;33.22;93169.38;2023102;71;20630;-80
2023/10/03 10:01:49;;;;;;;16.30;7.28;;;;;;;29.60;32.20;93175.94;2022765;71;20172;-75
2023/10/03 10:04:19;;;;;;;16.40;8.00;;;;;;;29.21;31.03;93173.09;2022452;71;20145;-76
2023/10/03 10:06:57;;;;;;;15.20;7.65;;;;;;;28.22;32.80;93165.06;2023029;71;20255;-80
2023/10/03 10:09:29;;;;;;;16.38;7.25;;;;;;;29.07;31.27;93170.94;2023070;71;20149;-78
2023/10/03 10:12:09;;;;;;;;;;;;;;;29.28;32.14;93168.03;2023163;71;20142;-77
2023/10/03 10:15:00;;;;;;;15.35;7.80;;;;;;;30.77;29.85;93164.44;2022939;71;20065;-82
2023/10/03 10:17:51;;;;;;;14.57;7.75;;;;;;;30.87;29.24;93164.34;2022856;71;20138;-80
2023/10/03 10:20:27;;;;;;;14.48;7.20;;;;;;;30.50;29.58;93152.97;2022680;71;20150;-77
2023/10/03 10:23:13;;;;;;;15.38;7.68;;;;;;;31.09;29.68;93157.63;2022615;71;20191;-75
2023/10/03 10:25:50;;;;;;;15.90;7.88;;;;;;;31.45;27.77;93161.66;2022878;71;20149;-80
2023/10/03 10:28:31;;;;;;;16.05;8.20;;;;;;;32.50;28.30;93159.66;2022714;71;20156;-78
2023/10/03 10:31:16;;;;;;;15.80;7.80;;;;;;;34.64;25.75;93155.72;2022852;71;20503;-77
2023/10/03 10:33:42;;;;;;;13.63;8.00;;;;;;;33.78;25.96;93153.16;2022848;71;20251;-76
2023/10/03 10:36:12;;;;;;;16.52;8.10;;;;;;;32.47;25.94;93148.78;2022842;71;20165;-77
2023/10/03 10:38:40;;;;;;;17.00;8.95;;;;;;;32.10;28.46;93134.69;2022294;71;20218;-79
2023/10/03 10:41:17;;;;;;;17.38;8.45;;;;;;;34.01;25.21;93133.72;2022974;71;20155;-79
2023/10/03 10:44:13;;;;;;;14.25;8.05;;;;;;;35.09;24.71;93130.53;2022895;71;20134;-78
2023/10/03 10:46:49;;;;;;;14.75;7.82;;;;;;;36.07;24.02;93122.81;2022733;71;20177;-76
2023/10/03 10:49:40;;;;;;;14.23;8.55;;;;;;;38.39;22.15;93123.16;2022638;71;20156;-77
2023/10/03 10:52:17;;;;;;;14.98;8.23;;;;;;;36.98;24.04;93117.88;2022926;71;20149;-81
2023/10/03 10:54:44;;;;;;;14.80;8.50;;;;;;;38.13;22.05;93113.13;2022651;71;20189;-77
2023/10/03 10:57:11;;;;;;;13.05;8.65;;;;;;;37.04;22.00;93114.72;2022384;71;20152;-76
2023/10/03 10:59:40;;;;;;;15.55;8.57;;;;;;;37.75;22.68;93109.34;2022222;71;20160;-80
2023/10/03 11:02:24;;;;;;;13.82;8.43;;;;;;;39.57;21.22;93102.97;2022549;71;20141;-79
2023/10/03 11:04:58;;;;;;;13.93;8.48;;;;;;;41.20;19.90;93099.97;2022683;71;20258;-77
2023/10/03 11:07:26;;;;;;;14.40;8.13;;;;;;;37.03;23.27;93090.53;2022790;71;20614;-78
2023/10/03 11:09:54;;;;;;;14.02;7.97;;;;;;;36.46;24.04;93086.47;2022650;71;20164;-77
2023/10/03 11:12:27;;;;;;;13.82;7.28;;;;;;;40.75;22.58;93090.31;2022549;71;20137;-79
2023/10/03 11:14:55;;;;;;;13.13;7.80;;;;;;;39.60;20.50;93092.53;2023142;71;20157;-76
2023/10/03 11:17:25;;;;;;;16.58;8.05;;;;;;;43.39;19.78;93099.28;2023249;71;20161;-76
2023/10/03 11:19:55;;;;;;;12.75;7.30;;;;;;;40.39;21.47;93072.81;2023126;71;20142;-81
2023/10/03 11:22:21;;;;;;;13.63;7.90;;;;;;;41.77;20.34;93074.13;2023519;71;20157;-77
2023/10/03 11:24:49;;;;;;;12.43;7.25;;;;;;;43.24;19.73;93077.94;2023066;71;20164;-78
2023/10/03 11:27:26;;;;;;;11.40;7.78;;;;;;;45.49;17.70;93079.56;2022920;71;20142;-76
2023/10/03 11:29:52;;;;;;;14.35;7.20;;;;;;;44.75;18.74;93074.00;2023434;71;20147;-75
2023/10/03 11:32:32;;;;;;;13.15;7.57;;;;;;;46.60;17.21;93073.41;2023142;71;20142;-75
2023/10/03 11:35:13;;;;;;;14.40;7.68;;;;;;;45.41;16.31;93058.59;2023121;71;20542;-75
2023/10/03 11:37:43;;;;;;;11.48;7.68;;;;;;;43.29;18.94;93058.38;2023222;71;20157;-76
2023/10/03 11:40:20;;;;;;;10.38;7.40;;;;;;;46.28;18.25;93063.78;2023441;71;20200;-76
2023/10/03 11:43:04;;;;;;;10.85;7.20;;;;;;;47.87;16.10;93055.09;2023265;71;20177;-76
2023/10/03 11:45:32;;;;;;;12.98;6.95;;;;;;;48.75;15.31;93054.91;2023347;71;20145;-76